Time;durP1;ratioP1;P1;durP2;ratioP2;P2;SDS_P1;SDS_P2;PMS_P1;PMS_P2;Temp;Humidity;BMP_temperature;BMP_pressure;BME280_temperature;BME280_humidity;BME280_pressure;Samples;Min_cycle;Max_cycle;Signal;HPM_P1;HPM_P2
2022/10/19 00:01:13;;;;;;;8.30;4.53;;;;;;;5.81;81.88;96264.66;1724812;82;21077;-61
2022/10/19 00:03:41;;;;;;;4.47;3.40;;;;;;;5.80;82.13;96261.61;1726085;82;21219;-61
2022/10/19 00:06:25;;;;;;;5.40;3.30;;;;;;;5.78;81.97;96258.09;1726412;82;21065;-61
2022/10/19 00:08:54;;;;;;;7.53;3.90;;;;;;;5.76;82.95;96262.86;1713393;82;21165;-62
2022/10/19 00:11:22;;;;;;;6.77;4.53;;;;;;;5.61;81.71;96255.72;1721072;82;21531;-63
2022/10/19 00:13:49;;;;;;;5.90;4.57;;;;;;;5.41;81.25;96251.55;1723709;82;21160;-62
2022/10/19 00:16:17;;;;;;;5.63;4.37;;;;;;;5.34;81.85;96245.80;1710669;82;21570;-62
2022/10/19 00:18:45;;;;;;;5.47;3.53;;;;;;;5.32;82.23;96253.65;1725401;82;21029;-62
2022/10/19 00:21:16;;;;;;;6.57;4.40;;;;;;;5.30;82.17;96257.10;1739190;82;21022;-62
2022/10/19 00:23:44;;;;;;;5.17;4.13;;;;;;;5.20;82.82;96252.18;1718270;82;21034;-61
2022/10/19 00:26:12;;;;;;;4.67;3.90;;;;;;;5.13;82.88;96257.75;1711964;82;21571;-62
2022/10/19 00:28:40;;;;;;;9.93;4.80;;;;;;;5.12;84.05;96257.31;1713737;82;22059;-62
2022/10/19 00:31:11;;;;;;;5.00;4.07;;;;;;;5.05;83.02;96260.70;1735587;82;21073;-62
2022/10/19 00:33:39;;;;;;;4.00;3.60;;;;;;;4.83;82.29;96255.59;1729424;82;21113;-61
2022/10/19 00:36:25;;;;;;;12.67;5.50;;;;;;;4.66;83.27;96258.39;1723457;82;21037;-62
2022/10/19 00:38:53;;;;;;;11.37;4.47;;;;;;;4.64;83.48;96249.23;1741327;82;21014;-61
2022/10/19 00:41:23;;;;;;;5.13;3.03;;;;;;;4.62;83.79;96240.92;1740216;82;21070;-62
2022/10/19 00:44:14;;;;;;;6.60;5.10;;;;;;;4.62;84.15;96240.92;1725747;82;21041;-61
2022/10/19 00:46:44;;;;;;;8.10;4.60;;;;;;;4.72;84.08;96242.81;1731683;82;21084;-61
2022/10/19 00:49:25;;;;;;;5.80;3.40;;;;;;;4.76;83.56;96239.36;1741046;82;21056;-61
2022/10/19 00:51:56;;;;;;;3.40;2.80;;;;;;;4.76;83.46;96242.89;1737015;82;21029;-61
2022/10/19 00:54:24;;;;;;;4.80;3.90;;;;;;;4.90;84.18;96229.98;1724297;82;21022;-61
2022/10/19 00:56:55;;;;;;;5.40;3.13;;;;;;;4.92;83.74;96235.25;1727661;82;21747;-62
2022/10/19 00:59:24;;;;;;;4.73;3.00;;;;;;;4.88;82.68;96229.52;1741807;82;21061;-62
2022/10/19 01:01:52;;;;;;;8.13;3.73;;;;;;;4.85;83.08;96226.87;1727274;82;21037;-61
2022/10/19 01:04:21;;;;;;;4.60;3.30;;;;;;;4.89;83.07;96228.24;1743576;82;21579;-61
2022/10/19 01:06:48;;;;;;;8.27;3.60;;;;;;;4.76;82.08;96228.50;1731564;82;21560;-62
2022/10/19 01:09:15;;;;;;;5.47;3.43;;;;;;;4.67;82.39;96220.95;1736369;82;21002;-61
2022/10/19 01:12:22;;;;;;;6.50;3.60;;;;;;;4.71;82.80;96228.87;1711524;82;21042;-68
2022/10/19 01:15:36;;;;;;;9.60;3.80;;;;;;;4.67;82.38;96218.34;1717965;82;21057;-61
2022/10/19 01:18:20;;;;;;;4.50;3.00;;;;;;;4.65;82.88;96217.00;1733919;82;21093;-61
2022/10/19 01:21:04;;;;;;;7.10;2.90;;;;;;;4.59;82.75;96206.47;1712401;82;21038;-61
2022/10/19 01:23:43;;;;;;;;;;;;;;;4.55;82.96;96201.61;1726376;82;21587;-62
2022/10/19 01:26:41;;;;;;;4.07;2.53;;;;;;;4.52;82.83;96192.42;1715877;82;20196;-61
2022/10/19 01:29:51;;;;;;;6.33;4.40;;;;;;;4.58;84.15;96192.06;1713540;82;21082;-62
2022/10/19 01:32:52;;;;;;;6.77;4.27;;;;;;;4.52;83.19;96196.34;1729056;82;21084;-61
2022/10/19 01:35:44;;;;;;;7.27;3.60;;;;;;;4.42;82.87;96187.05;1736641;82;21541;-61
2022/10/19 01:38:29;;;;;;;5.33;3.10;;;;;;;4.39;82.87;96188.32;1741297;82;21002;-61
2022/10/19 01:41:22;;;;;;;4.30;3.00;;;;;;;4.33;82.94;96185.16;1711937;82;21117;-61
2022/10/19 01:44:04;;;;;;;4.33;3.08;;;;;;;4.28;83.65;96196.88;1729731;82;21065;-62
2022/10/19 01:46:41;;;;;;;3.87;1.87;;;;;;;4.26;83.23;96197.71;1717131;82;21125;-62
2022/10/19 01:49:21;;;;;;;4.83;2.60;;;;;;;4.21;82.90;96196.33;1690077;82;21026;-61
2022/10/19 01:51:59;;;;;;;4.63;2.27;;;;;;;4.13;83.28;96197.91;1733775;82;21053;-61
2022/10/19 01:54:30;;;;;;;5.70;2.80;;;;;;;4.09;83.13;96194.39;1685731;83;21057;-62
2022/10/19 01:57:00;;;;;;;4.97;2.23;;;;;;;3.97;84.48;96195.48;1717968;82;21532;-61
2022/10/19 01:59:27;;;;;;;7.63;2.10;;;;;;;3.96;83.92;96182.00;1720167;82;21045;-61
2022/10/19 02:01:55;;;;;;;8.83;2.80;;;;;;;4.01;84.73;96180.77;1712865;82;21491;-61
2022/10/19 02:04:24;;;;;;;4.30;3.03;;;;;;;4.06;84.53;96181.73;1711485;82;21049;-61
2022/10/19 02:06:54;;;;;;;5.17;2.70;;;;;;;4.11;84.55;96185.28;1732972;82;21527;-61
2022/10/19 02:09:21;;;;;;;4.90;2.60;;;;;;;4.12;84.18;96186.59;1720745;82;21547;-61
2022/10/19 02:11:53;;;;;;;5.93;3.10;;;;;;;4.19;84.25;96185.41;1728032;82;21497;-62
2022/10/19 02:14:25;;;;;;;7.27;3.03;;;;;;;4.22;83.73;96191.55;1698201;82;21034;-61
2022/10/19 02:16:59;;;;;;;3.67;2.60;;;;;;;4.18;82.64;96187.55;1713529;82;21038;-61
2022/10/19 02:19:26;;;;;;;5.73;2.53;;;;;;;4.13;83.38;96187.47;1716878;82;21504;-62
2022/10/19 02:21:54;;;;;;;3.90;2.73;;;;;;;4.03;82.44;96187.78;1710333;82;21045;-61
2022/10/19 02:24:21;;;;;;;18.23;10.27;;;;;;;3.95;82.11;96180.22;1686802;82;21054;-61
2022/10/19 02:26:49;;;;;;;10.43;7.30;;;;;;;3.85;82.55;96183.53;1734309;82;21022;-61
2022/10/19 02:29:16;;;;;;;8.77;4.03;;;;;;;3.90;84.21;96181.45;1714236;82;21064;-61
2022/10/19 02:31:44;;;;;;;4.17;2.00;;;;;;;3.89;83.74;96170.56;1724314;82;21042;-61
2022/10/19 02:34:12;;;;;;;4.10;3.10;;;;;;;3.97;83.93;96175.91;1710858;82;22283;-61
2022/10/19 02:36:39;;;;;;;12.07;3.80;;;;;;;4.06;84.14;96185.21;1714270;82;21057;-61
2022/10/19 02:39:07;;;;;;;4.73;3.10;;;;;;;4.16;83.87;96193.17;1728178;82;21082;-61
2022/10/19 02:41:44;;;;;;;5.53;2.00;;;;;;;4.26;84.14;96194.66;1744353;82;21068;-62
2022/10/19 02:44:22;;;;;;;8.27;2.10;;;;;;;4.36;83.76;96189.56;1738586;82;21139;-61
2022/10/19 02:47:00;;;;;;;4.83;3.13;;;;;;;4.25;82.40;96190.28;1720486;82;21081;-61
2022/10/19 02:49:28;;;;;;;4.07;2.70;;;;;;;4.08;82.26;96187.42;1732476;82;21543;-61
2022/10/19 02:52:05;;;;;;;6.03;3.47;;;;;;;3.99;82.36;96182.04;1726644;82;21026;-61
2022/10/19 02:54:32;;;;;;;4.90;2.17;;;;;;;3.92;82.67;96177.56;1716864;82;21042;-61
2022/10/19 02:56:59;;;;;;;7.23;3.87;;;;;;;3.89;82.83;96177.09;1712990;82;21045;-61
2022/10/19 02:59:26;;;;;;;5.97;4.63;;;;;;;3.91;83.75;96177.13;1725132;82;21049;-61
2022/10/19 03:01:53;;;;;;;6.70;4.73;;;;;;;3.89;82.94;96173.17;1738810;82;21034;-62
2022/10/19 03:04:20;;;;;;;7.27;4.67;;;;;;;3.90;83.04;96175.35;1735323;82;21037;-61
2022/10/19 03:06:46;;;;;;;27.67;12.43;;;;;;;3.85;82.98;96186.14;1720358;82;21088;-61
2022/10/19 03:09:13;;;;;;;40.03;18.90;;;;;;;3.80;83.14;96176.92;1729507;82;21062;-61
2022/10/19 03:11:39;;;;;;;39.97;16.83;;;;;;;3.74;82.92;96179.88;1735285;82;21120;-62
2022/10/19 03:14:06;;;;;;;30.13;14.67;;;;;;;3.68;83.46;96180.66;1740420;82;21026;-61
2022/10/19 03:16:33;;;;;;;24.93;10.17;;;;;;;3.64;83.43;96174.48;1728077;82;21029;-62
2022/10/19 03:18:59;;;;;;;13.03;7.43;;;;;;;3.65;84.54;96181.48;1727371;82;21041;-61
2022/10/19 03:21:26;;;;;;;5.03;2.93;;;;;;;3.68;84.02;96178.92;1737692;82;21507;-61
2022/10/19 03:23:53;;;;;;;3.20;2.40;;;;;;;3.75;83.68;96176.41;1712246;82;21065;-61
2022/10/19 03:26:20;;;;;;;10.87;5.60;;;;;;;3.75;83.55;96169.88;1736931;82;21060;-61
2022/10/19 03:28:46;;;;;;;9.67;6.10;;;;;;;3.66;83.74;96171.92;1722305;82;21159;-61
2022/10/19 03:31:13;;;;;;;4.93;2.77;;;;;;;3.61;83.68;96168.35;1717953;82;21075;-65
2022/10/19 03:33:39;;;;;;;11.97;5.50;;;;;;;3.64;84.58;96165.36;1729550;82;21072;-63
2022/10/19 03:36:28;;;;;;;14.10;8.50;;;;;;;3.73;85.21;96158.53;1713561;82;21134;-64
2022/10/19 03:38:57;;;;;;;11.70;7.73;;;;;;;3.74;84.19;96159.87;1723271;82;21116;-63
2022/10/19 03:41:27;;;;;;;8.77;3.53;;;;;;;3.77;84.18;96149.48;1741446;82;21038;-64
2022/10/19 03:43:55;;;;;;;6.13;3.33;;;;;;;3.85;84.27;96146.55;1743005;82;21089;-65
2022/10/19 03:46:22;;;;;;;5.60;3.07;;;;;;;3.93;84.65;96147.11;1716619;82;21038;-64
2022/10/19 03:48:49;;;;;;;14.83;4.53;;;;;;;3.92;84.43;96149.28;1710779;82;21503;-63
2022/10/19 03:51:20;;;;;;;11.87;6.17;;;;;;;3.96;84.50;96149.80;1723915;82;21495;-64
2022/10/19 03:53:47;;;;;;;14.17;7.50;;;;;;;3.95;83.30;96155.42;1720153;82;21021;-63
2022/10/19 03:56:17;;;;;;;16.63;7.17;;;;;;;3.82;82.32;96145.20;1729097;82;21124;-63
2022/10/19 03:58:47;;;;;;;3.97;1.60;;;;;;;3.80;82.65;96145.60;1735332;82;21100;-63
2022/10/19 04:01:18;;;;;;;3.50;2.43;;;;;;;3.82;83.57;96141.30;1719384;82;21077;-64
2022/10/19 04:03:45;;;;;;;9.03;3.47;;;;;;;3.88;84.26;96133.58;1734133;82;21069;-64
2022/10/19 04:06:17;;;;;;;16.57;10.80;;;;;;;4.03;84.58;96139.47;1715173;82;21065;-64
2022/10/19 04:08:47;;;;;;;20.27;13.00;;;;;;;4.15;83.89;96141.80;1714063;82;21480;-64
2022/10/19 04:11:15;;;;;;;10.33;6.07;;;;;;;4.26;83.75;96133.28;1720264;82;21092;-64
2022/10/19 04:13:42;;;;;;;3.73;2.20;;;;;;;4.26;82.95;96135.02;1720238;82;21097;-64
2022/10/19 04:16:12;;;;;;;6.60;3.87;;;;;;;4.27;82.79;96130.23;1729406;82;21034;-63
2022/10/19 04:18:39;;;;;;;17.37;8.97;;;;;;;4.21;82.92;96130.13;1727137;82;21595;-64
2022/10/19 04:21:06;;;;;;;19.50;11.13;;;;;;;4.21;82.91;96123.20;1738727;82;21182;-64
2022/10/19 04:23:35;;;;;;;13.80;9.53;;;;;;;4.18;81.82;96119.20;1727798;82;21006;-63
2022/10/19 04:26:06;;;;;;;14.03;9.03;;;;;;;4.06;82.05;96127.76;1741450;82;20986;-63
2022/10/19 04:28:33;;;;;;;8.70;3.20;;;;;;;3.94;82.40;96125.39;1725535;82;21032;-64
2022/10/19 04:31:04;;;;;;;4.07;2.30;;;;;;;3.96;82.74;96117.16;1713496;82;21111;-64
2022/10/19 04:33:33;;;;;;;8.70;3.83;;;;;;;3.99;83.85;96118.50;1727286;82;21610;-63
2022/10/19 04:36:01;;;;;;;13.27;7.43;;;;;;;3.92;83.52;96121.44;1710494;82;21049;-63
2022/10/19 04:38:28;;;;;;;6.10;3.10;;;;;;;3.85;83.23;96122.19;1710729;82;21037;-63
2022/10/19 04:40:57;;;;;;;2.23;2.00;;;;;;;3.82;83.33;96123.02;1710742;82;21022;-63
2022/10/19 04:43:24;;;;;;;6.67;4.83;;;;;;;3.82;83.90;96118.23;1720170;82;21159;-63
2022/10/19 04:45:50;;;;;;;15.03;9.50;;;;;;;3.84;84.11;96116.09;1723468;82;21046;-63
2022/10/19 04:48:17;;;;;;;14.60;7.57;;;;;;;3.82;83.83;96113.89;1724615;82;21026;-66
2022/10/19 04:50:44;;;;;;;9.87;6.63;;;;;;;3.77;82.90;96111.63;1729701;82;21093;-64
2022/10/19 04:53:12;;;;;;;4.77;2.70;;;;;;;3.73;83.19;96111.55;1744076;82;21041;-64
2022/10/19 04:55:41;;;;;;;5.63;2.43;;;;;;;3.76;83.48;96111.63;1738326;82;21088;-64
2022/10/19 04:58:08;;;;;;;10.27;5.93;;;;;;;3.71;83.20;96105.45;1718192;82;21105;-64
2022/10/19 05:00:38;;;;;;;8.70;6.60;;;;;;;3.66;83.70;96104.94;1738241;82;22184;-65
2022/10/19 05:03:05;;;;;;;11.97;7.00;;;;;;;3.63;83.88;96107.94;1716468;82;21076;-63
2022/10/19 05:05:33;;;;;;;11.23;7.83;;;;;;;3.62;84.51;96104.42;1698519;82;21108;-66
2022/10/19 05:08:00;;;;;;;11.00;7.30;;;;;;;3.66;84.59;96106.25;1732805;82;21084;-65
2022/10/19 05:10:27;;;;;;;6.83;4.97;;;;;;;3.64;83.40;96107.95;1733870;82;21555;-66
2022/10/19 05:12:54;;;;;;;7.07;4.53;;;;;;;3.62;84.27;96109.64;1713524;82;21064;-63
2022/10/19 05:15:20;;;;;;;10.40;7.00;;;;;;;3.68;85.18;96108.45;1709882;82;21064;-63
2022/10/19 05:17:47;;;;;;;9.17;6.47;;;;;;;3.76;84.83;96108.58;1724933;82;21077;-64
2022/10/19 05:20:14;;;;;;;7.80;2.53;;;;;;;3.75;83.71;96102.89;1744207;82;21113;-66
2022/10/19 05:22:40;;;;;;;9.37;6.40;;;;;;;3.77;84.02;96097.70;1739755;82;21045;-65
2022/10/19 05:25:08;;;;;;;10.53;6.00;;;;;;;3.82;84.60;96108.66;1724367;82;21017;-63
2022/10/19 05:27:35;;;;;;;9.20;7.00;;;;;;;3.86;84.03;96113.09;1718655;82;21104;-62
2022/10/19 05:30:01;;;;;;;13.60;9.30;;;;;;;3.90;84.69;96109.66;1725155;82;21567;-65
2022/10/19 05:32:28;;;;;;;14.70;10.63;;;;;;;3.96;84.22;96108.02;1712906;82;21068;-66
2022/10/19 05:34:54;;;;;;;16.30;9.90;;;;;;;3.98;83.92;96110.20;1711891;82;21080;-64
2022/10/19 05:37:22;;;;;;;7.93;5.10;;;;;;;4.00;84.01;96108.50;1725618;82;21091;-66
2022/10/19 05:39:48;;;;;;;5.67;2.40;;;;;;;4.05;83.67;96106.40;1742798;82;21551;-68
2022/10/19 05:42:15;;;;;;;5.90;3.63;;;;;;;4.17;84.31;96109.62;1734590;82;21080;-64
2022/10/19 05:44:42;;;;;;;10.47;8.17;;;;;;;4.23;84.34;96109.70;1719488;82;21153;-65
2022/10/19 05:47:08;;;;;;;12.73;8.47;;;;;;;4.37;85.29;96107.30;1710035;82;21073;-64
2022/10/19 05:49:35;;;;;;;14.67;10.50;;;;;;;4.60;85.25;96115.88;1717109;82;21519;-62
2022/10/19 05:52:03;;;;;;;15.50;9.47;;;;;;;4.72;83.70;96119.52;1730191;82;21106;-64
2022/10/19 05:54:30;;;;;;;5.00;4.17;;;;;;;4.70;82.93;96116.00;1740865;82;21048;-63
2022/10/19 05:56:56;;;;;;;7.37;2.67;;;;;;;4.72;84.13;96119.52;1717933;82;21093;-62
2022/10/19 05:59:23;;;;;;;12.57;7.30;;;;;;;4.77;83.75;96115.66;1742278;82;21227;-63
2022/10/19 06:01:50;;;;;;;12.50;6.73;;;;;;;4.85;84.94;96120.98;1736400;82;21025;-65
2022/10/19 06:04:17;;;;;;;9.20;7.20;;;;;;;4.87;84.12;96118.83;1737889;82;21130;-65
2022/10/19 06:06:44;;;;;;;9.00;7.30;;;;;;;4.90;84.92;96111.02;1724160;82;21043;-65
2022/10/19 06:09:11;;;;;;;10.73;7.70;;;;;;;4.98;85.62;96105.87;1733040;82;21036;-64
2022/10/19 06:11:40;;;;;;;11.90;7.30;;;;;;;5.11;85.52;96102.95;1741446;82;21586;-63
2022/10/19 06:14:11;;;;;;;8.60;6.37;;;;;;;5.16;84.00;96103.44;1743505;81;21535;-63
2022/10/19 06:16:38;;;;;;;9.37;6.60;;;;;;;5.26;83.11;96107.03;1737973;82;21061;-66
2022/10/19 06:19:06;;;;;;;8.03;5.77;;;;;;;5.41;83.25;96104.56;1736330;81;21404;-64
2022/10/19 06:21:34;;;;;;;8.23;6.30;;;;;;;5.54;83.24;96100.32;1743090;82;21061;-64
2022/10/19 06:24:04;;;;;;;10.47;6.73;;;;;;;5.69;82.99;96102.20;1744374;82;21562;-62
2022/10/19 06:26:33;;;;;;;10.63;6.80;;;;;;;5.87;83.00;96108.02;1742914;82;21467;-63
2022/10/19 06:29:01;;;;;;;10.00;6.37;;;;;;;6.01;81.92;96111.66;1739556;81;22237;-63
2022/10/19 06:31:31;;;;;;;6.60;5.90;;;;;;;6.09;80.48;96118.26;1741376;82;21124;-61
2022/10/19 06:33:58;;;;;;;9.90;5.90;;;;;;;6.20;80.40;96115.30;1741455;82;21487;-61
2022/10/19 06:36:28;;;;;;;8.77;5.80;;;;;;;6.36;80.79;96117.58;1742636;82;21157;-62
2022/10/19 06:38:55;;;;;;;8.70;7.50;;;;;;;6.53;80.83;96119.41;1740127;82;21108;-61
2022/10/19 06:41:23;;;;;;;11.47;6.67;;;;;;;6.68;80.72;96117.76;1738382;81;21081;-63
2022/10/19 06:43:51;;;;;;;10.97;6.30;;;;;;;6.85;80.43;96106.01;1746396;82;21033;-69
2022/10/19 06:46:22;;;;;;;10.53;5.70;;;;;;;7.04;79.87;96098.23;1738427;82;21041;-61
2022/10/19 06:48:57;;;;;;;6.83;5.13;;;;;;;7.21;79.90;96100.47;1739802;81;21743;-62
2022/10/19 06:51:26;;;;;;;8.33;5.20;;;;;;;7.43;79.56;96101.81;1745832;81;21064;-63
2022/10/19 06:53:54;;;;;;;6.13;4.50;;;;;;;7.67;79.64;96103.16;1743387;81;21583;-63
2022/10/19 06:56:21;;;;;;;11.47;5.20;;;;;;;7.93;79.87;96095.28;1740529;82;21045;-64
2022/10/19 06:58:48;;;;;;;6.73;4.03;;;;;;;8.23;79.63;96091.75;1742395;82;21006;-62
2022/10/19 07:01:15;;;;;;;6.87;4.50;;;;;;;8.48;78.47;96089.55;1740974;81;21026;-62
2022/10/19 07:03:42;;;;;;;7.10;4.43;;;;;;;8.66;77.43;96090.81;1743154;82;21141;-63
2022/10/19 07:06:11;;;;;;;136.10;56.77;;;;;;;8.79;76.40;96083.75;1741601;81;21080;-63
2022/10/19 07:08:40;;;;;;;24.73;12.83;;;;;;;8.91;74.78;96086.33;1738289;81;21073;-63
2022/10/19 07:11:14;;;;;;;17.33;10.87;;;;;;;9.16;75.68;96074.38;1737233;82;21454;-65
2022/10/19 07:13:41;;;;;;;10.87;6.37;;;;;;;9.35;74.11;96081.30;1742085;81;21594;-65
2022/10/19 07:16:11;;;;;;;8.93;5.27;;;;;;;9.52;74.42;96083.39;1738291;82;21080;-63
2022/10/19 07:18:41;;;;;;;9.67;5.10;;;;;;;9.71;74.55;96080.16;1735674;82;21598;-63
2022/10/19 07:21:11;;;;;;;13.70;6.77;;;;;;;9.91;75.21;96072.55;1740793;81;21042;-64
2022/10/19 07:23:40;;;;;;;8.97;5.63;;;;;;;10.23;75.97;96072.27;1739335;81;20998;-65
2022/10/19 07:26:15;;;;;;;13.98;5.05;;;;;;;10.53;75.66;96065.84;1739593;81;21045;-63
2022/10/19 07:28:45;;;;;;;9.15;4.60;;;;;;;10.80;75.45;96055.39;1737445;82;21492;-65
2022/10/19 07:31:19;;;;;;;10.72;5.72;;;;;;;11.18;73.81;96046.55;1741405;82;21037;-66
2022/10/19 07:33:58;;;;;;;8.53;5.58;;;;;;;11.25;72.93;96045.58;1739915;81;21119;-64
2022/10/19 07:36:26;;;;;;;14.38;8.78;;;;;;;11.39;72.35;96042.72;1743769;81;21092;-65
2022/10/19 07:38:53;;;;;;;76.75;46.63;;;;;;;11.44;71.28;96044.84;1740030;82;21076;-65
2022/10/19 07:41:22;;;;;;;79.35;57.15;;;;;;;11.46;69.93;96044.38;1739191;82;21029;-67
2022/10/19 07:43:50;;;;;;;13.45;8.18;;;;;;;11.46;69.93;96043.06;1738044;82;21069;-63
2022/10/19 07:46:20;;;;;;;9.88;5.70;;;;;;;11.47;69.83;96036.45;1739525;82;21061;-66
2022/10/19 07:48:48;;;;;;;8.65;5.25;;;;;;;11.53;71.09;96039.89;1739469;82;21045;-65
2022/10/19 07:51:16;;;;;;;8.38;5.90;;;;;;;11.56;71.13;96026.62;1739545;81;21543;-64
2022/10/19 07:53:44;;;;;;;8.70;5.92;;;;;;;11.56;70.63;96023.98;1740426;81;21085;-63
2022/10/19 07:56:21;;;;;;;10.58;7.10;;;;;;;11.54;70.46;96010.81;1744902;82;21704;-65
2022/10/19 07:58:50;;;;;;;8.43;6.47;;;;;;;11.52;70.39;96016.56;1740118;81;21139;-64
2022/10/19 08:01:21;;;;;;;12.65;6.80;;;;;;;11.54;70.64;96018.74;1742766;81;21030;-66
2022/10/19 08:03:51;;;;;;;14.55;7.67;;;;;;;11.52;70.57;96032.42;1743499;82;21087;-66
2022/10/19 08:06:18;;;;;;;14.80;7.90;;;;;;;11.48;70.51;96038.18;1733464;82;21538;-64
2022/10/19 08:08:47;;;;;;;15.25;7.67;;;;;;;11.46;70.20;96038.68;1740489;82;21554;-66
2022/10/19 08:11:22;;;;;;;11.25;6.70;;;;;;;11.46;70.48;96025.89;1755452;81;21018;-63
2022/10/19 08:13:49;;;;;;;19.17;8.15;;;;;;;11.52;70.43;96017.02;1751095;80;21171;-64
2022/10/19 08:16:36;;;;;;;14.33;8.05;;;;;;;11.59;70.74;96008.97;1756630;81;21049;-63
2022/10/19 08:19:10;;;;;;;11.05;8.28;;;;;;;11.61;70.46;96020.81;1751004;81;21642;-65
2022/10/19 08:21:39;;;;;;;16.00;7.80;;;;;;;11.63;70.43;96031.79;1740530;81;20995;-65
2022/10/19 08:24:07;;;;;;;13.78;7.22;;;;;;;11.59;70.95;96028.79;1747071;81;21634;-67
2022/10/19 08:26:37;;;;;;;13.98;7.33;;;;;;;11.61;71.34;96026.10;1722777;81;21013;-64
2022/10/19 08:29:11;;;;;;;12.63;7.60;;;;;;;11.66;71.28;96030.41;1723889;82;21040;-66
2022/10/19 08:31:39;;;;;;;15.93;8.63;;;;;;;11.64;70.98;96027.38;1721461;82;21022;-65
2022/10/19 08:34:06;;;;;;;17.62;9.03;;;;;;;11.65;71.28;96026.03;1738036;81;21019;-64
2022/10/19 08:36:34;;;;;;;46.73;26.97;;;;;;;11.74;71.67;96029.42;1686672;82;21107;-65
2022/10/19 08:39:04;;;;;;;16.75;10.23;;;;;;;11.81;71.62;96024.46;1737227;81;21083;-65
2022/10/19 08:42:04;;;;;;;11.03;6.30;;;;;;;11.88;71.66;96020.86;1741867;82;21581;-62
2022/10/19 08:45:00;;;;;;;10.48;6.10;;;;;;;11.99;70.95;96021.53;1743322;81;21061;-65
2022/10/19 08:47:47;;;;;;;11.45;5.70;;;;;;;12.09;69.86;96015.64;1737416;81;21068;-67
2022/10/19 08:50:37;;;;;;;12.93;5.67;;;;;;;12.18;68.97;96015.94;1737863;82;21119;-63
2022/10/19 08:53:09;;;;;;;8.38;5.97;;;;;;;12.27;69.32;96011.36;1741872;81;21013;-65
2022/10/19 08:56:13;;;;;;;9.40;6.33;;;;;;;12.36;68.87;96006.33;1744764;82;21168;-64
2022/10/19 08:58:51;;;;;;;8.45;6.65;;;;;;;12.48;68.56;96007.87;1736461;82;21079;-68
2022/10/19 09:02:14;;;;;;;14.80;6.40;;;;;;;12.60;68.73;96004.09;1727862;82;21091;-64
2022/10/19 09:04:46;;;;;;;16.95;7.03;;;;;;;12.72;68.47;95999.42;1740454;81;21041;-63
2022/10/19 09:07:28;;;;;;;10.95;7.15;;;;;;;12.85;67.51;96006.69;1742379;81;21056;-62
2022/10/19 09:10:09;;;;;;;9.07;7.13;;;;;;;12.92;67.54;96008.73;1737675;81;21040;-63
2022/10/19 09:12:58;;;;;;;11.10;7.65;;;;;;;12.95;67.32;96007.34;1740778;81;21071;-63
2022/10/19 09:15:45;;;;;;;11.70;7.67;;;;;;;12.97;66.87;96007.73;1720265;82;21076;-64
2022/10/19 09:18:19;;;;;;;9.58;7.60;;;;;;;13.01;66.71;96007.23;1738095;81;21076;-62
2022/10/19 09:20:50;;;;;;;12.75;8.08;;;;;;;13.02;66.64;96007.63;1706175;82;21076;-63
2022/10/19 09:23:44;;;;;;;10.13;7.65;;;;;;;13.04;66.38;96007.16;1737607;81;21048;-62
2022/10/19 09:26:16;;;;;;;15.40;7.47;;;;;;;13.17;66.49;96011.73;1740953;81;21102;-65
2022/10/19 09:29:33;;;;;;;13.25;7.42;;;;;;;13.34;65.56;96010.08;1744885;82;21215;-64
2022/10/19 09:32:05;;;;;;;11.20;7.37;;;;;;;13.47;65.29;96006.22;1742423;81;21092;-63
2022/10/19 09:34:41;;;;;;;25.10;16.75;;;;;;;13.61;63.98;96006.78;1741662;81;21004;-64
2022/10/19 09:37:11;;;;;;;17.67;12.80;;;;;;;13.74;64.13;96007.81;1723436;82;21056;-63
2022/10/19 09:39:38;;;;;;;21.15;9.73;;;;;;;13.81;64.00;96003.65;1741523;81;21088;-65
2022/10/19 09:42:21;;;;;;;19.35;10.93;;;;;;;13.90;64.46;96005.65;1753637;81;21331;-63
2022/10/19 09:44:51;;;;;;;16.27;10.13;;;;;;;13.94;64.32;96001.56;1726516;82;21060;-63
2022/10/19 09:47:35;;;;;;;10.85;7.17;;;;;;;14.02;63.75;96007.99;1737249;81;21029;-64
2022/10/19 09:50:26;;;;;;;10.78;6.25;;;;;;;14.09;64.00;95991.47;1741608;82;21025;-61
2022/10/19 09:52:56;;;;;;;6.60;4.92;;;;;;;14.15;62.51;95986.86;1744546;81;21001;-61
2022/10/19 09:55:44;;;;;;;6.55;4.87;;;;;;;14.21;61.39;95993.34;1747074;82;21485;-64
2022/10/19 09:58:18;;;;;;;9.03;5.80;;;;;;;14.24;61.45;95987.95;1736269;81;21096;-63
2022/10/19 10:00:53;;;;;;;8.03;5.40;;;;;;;14.28;60.59;95991.37;1740713;81;21040;-62
2022/10/19 10:03:39;;;;;;;6.67;4.97;;;;;;;14.33;60.92;95992.13;1741804;82;21057;-61
2022/10/19 10:06:14;;;;;;;7.95;4.80;;;;;;;14.34;59.72;95989.01;1736246;82;21583;-62
2022/10/19 10:08:57;;;;;;;10.20;5.28;;;;;;;14.39;59.49;95987.10;1737497;81;21028;-61
2022/10/19 10:11:31;;;;;;;8.73;5.10;;;;;;;14.41;59.63;95981.30;1738697;82;21080;-61
2022/10/19 10:14:06;;;;;;;9.98;5.55;;;;;;;14.57;59.84;95975.16;1742034;82;21041;-61
2022/10/19 10:16:35;;;;;;;9.85;5.45;;;;;;;14.57;59.84;95975.16;1741752;82;21127;-61
2022/10/19 10:19:09;;;;;;;9.88;6.12;;;;;;;14.67;58.89;95976.17;1736377;81;21040;-61
2022/10/19 10:21:50;;;;;;;11.68;6.40;;;;;;;14.78;58.18;95959.06;1739704;81;21025;-60
2022/10/19 10:24:20;;;;;;;8.30;5.53;;;;;;;14.90;58.52;95980.82;1742326;82;21072;-62
2022/10/19 10:26:51;;;;;;;8.95;4.97;;;;;;;15.00;56.38;95981.42;1748461;81;21056;-63
2022/10/19 10:29:25;;;;;;;7.65;4.65;;;;;;;15.06;56.98;95977.23;1736990;81;21025;-61
2022/10/19 10:32:12;;;;;;;6.85;4.25;;;;;;;15.12;57.79;95980.20;1742292;81;21020;-61
2022/10/19 10:35:01;;;;;;;9.45;5.60;;;;;;;15.16;56.77;95979.17;1742934;82;21017;-61
2022/10/19 10:37:40;;;;;;;9.13;5.03;;;;;;;15.18;56.30;95972.48;1739140;82;21579;-61
2022/10/19 10:40:21;;;;;;;7.17;5.28;;;;;;;15.21;55.35;95963.95;1744347;81;21092;-62
2022/10/19 10:42:50;;;;;;;11.78;5.97;;;;;;;15.27;56.38;95971.75;1738003;81;21071;-62
2022/10/19 10:45:30;;;;;;;16.95;7.15;;;;;;;15.30;55.66;95959.69;1741545;82;21032;-61
2022/10/19 10:48:01;;;;;;;10.53;6.33;;;;;;;15.27;55.47;95961.55;1742819;81;21081;-61
2022/10/19 10:50:33;;;;;;;12.68;6.92;;;;;;;15.25;55.21;95962.08;1744687;82;20997;-62
2022/10/19 10:53:27;;;;;;;7.83;5.40;;;;;;;15.17;55.35;95957.44;1748778;81;21001;-65
2022/10/19 10:55:56;;;;;;;9.75;5.37;;;;;;;15.15;55.69;95957.50;1739431;81;21340;-61
2022/10/19 10:58:49;;;;;;;11.88;5.20;;;;;;;15.25;56.33;95958.95;1744527;82;21013;-61
2022/10/19 11:01:25;;;;;;;;;;;;;;;15.30;55.96;95953.50;1742173;81;21025;-61
2022/10/19 11:04:08;;;;;;;10.25;5.37;;;;;;;15.37;55.56;95949.70;1736722;81;20106;-63
2022/10/19 11:06:41;;;;;;;12.47;5.92;;;;;;;15.60;55.75;95951.66;1743274;82;21197;-64
2022/10/19 11:09:33;;;;;;;8.83;5.70;;;;;;;15.98;56.49;95936.23;1737961;81;21530;-63
2022/10/19 11:12:04;;;;;;;10.28;5.87;;;;;;;16.12;56.11;95933.08;1725329;81;21041;-62
2022/10/19 11:14:51;;;;;;;9.20;5.25;;;;;;;16.08;54.06;95931.00;1739363;81;21033;-63
2022/10/19 11:17:25;;;;;;;7.17;5.97;;;;;;;16.19;55.04;95934.61;1738590;82;21522;-62
2022/10/19 11:19:52;;;;;;;10.18;5.72;;;;;;;16.44;54.33;95921.28;1746778;82;21032;-63
2022/10/19 11:22:59;;;;;;;9.75;5.60;;;;;;;16.64;53.63;95919.22;1739249;82;21041;-63
2022/10/19 11:25:37;;;;;;;16.40;6.75;;;;;;;17.13;52.00;95911.17;1745879;81;20978;-63
2022/10/19 11:28:28;;;;;;;12.28;5.97;;;;;;;17.25;52.17;95908.02;1741391;82;21089;-73
2022/10/19 11:31:15;;;;;;;10.45;5.53;;;;;;;17.24;51.71;95904.49;1711306;82;21026;-63
2022/10/19 11:34:02;;;;;;;12.10;6.17;;;;;;;17.08;51.35;95908.24;1737298;82;21080;-63
2022/10/19 11:36:47;;;;;;;7.33;5.67;;;;;;;16.94;51.38;95901.70;1739836;82;21064;-63
2022/10/19 11:39:48;;;;;;;8.43;5.25;;;;;;;16.90;49.90;95892.94;1716850;82;21037;-62
2022/10/19 11:42:42;;;;;;;6.90;5.03;;;;;;;17.45;49.92;95879.22;1737432;81;21507;-62
2022/10/19 11:45:35;;;;;;;10.60;4.92;;;;;;;18.00;47.77;95884.07;1738032;82;21017;-63
2022/10/19 11:48:19;;;;;;;7.25;4.97;;;;;;;18.42;46.58;95885.33;1720126;82;21491;-63
2022/10/19 11:51:36;;;;;;;9.60;5.50;;;;;;;18.94;45.99;95877.59;1739527;81;21008;-63
2022/10/19 11:54:34;;;;;;;8.88;5.80;;;;;;;19.57;45.65;95871.02;1743931;81;21517;-63
2022/10/19 11:57:15;;;;;;;11.45;6.62;;;;;;;20.38;42.11;95872.23;1737025;82;21036;-64
2022/10/19 12:00:17;;;;;;;11.85;6.65;;;;;;;21.35;41.69;95877.72;1743017;82;21025;-64
2022/10/19 12:03:25;;;;;;;8.00;6.15;;;;;;;22.14;39.61;95870.87;1742135;82;21017;-64
2022/10/19 12:06:11;;;;;;;11.22;5.42;;;;;;;22.82;38.68;95867.64;1747126;82;21065;-64